Time;durP1;ratioP1;P1;durP2;ratioP2;P2;SDS_P1;SDS_P2;PMS_P1;PMS_P2;Temp;Humidity;BMP_temperature;BMP_pressure;BME280_temperature;BME280_humidity;BME280_pressure;Samples;Min_cycle;Max_cycle;Signal;HPM_P1;HPM_P2
2022/06/11 00:01:55;;;;;;;9.70;8.23;;;20.40;99.90;;;;;;4990218;28;20972;-73
2022/06/11 00:04:24;;;;;;;10.30;9.30;;;20.40;99.90;;;;;;4981717;28;20533;-75
2022/06/11 00:06:56;;;;;;;11.83;8.90;;;20.40;99.90;;;;;;4974127;28;20563;-74
2022/06/11 00:09:24;;;;;;;9.50;8.63;;;20.50;99.90;;;;;;4975515;28;20806;-74
2022/06/11 00:12:00;;;;;;;9.23;8.33;;;20.40;99.90;;;;;;4969356;28;20859;-73
2022/06/11 00:14:33;;;;;;;8.07;7.27;;;20.50;99.90;;;;;;4969259;28;20452;-74
2022/06/11 00:17:03;;;;;;;7.37;6.60;;;20.50;99.90;;;;;;4974971;28;20535;-75
2022/06/11 00:19:32;;;;;;;10.70;7.40;;;20.50;99.90;;;;;;4973266;28;20813;-73
2022/06/11 00:21:59;;;;;;;8.07;7.27;;;20.50;99.90;;;;;;4975072;28;20472;-75
2022/06/11 00:24:28;;;;;;;9.03;8.23;;;20.50;99.90;;;;;;4976725;28;20463;-74
2022/06/11 00:26:57;;;;;;;9.53;8.63;;;20.40;99.90;;;;;;4979443;28;20493;-74
2022/06/11 00:29:27;;;;;;;9.97;9.07;;;20.40;99.90;;;;;;4975923;28;20923;-75
2022/06/11 00:31:54;;;;;;;10.77;9.60;;;20.40;99.90;;;;;;4981308;28;20489;-74
2022/06/11 00:34:23;;;;;;;12.30;8.00;;;20.30;99.90;;;;;;4975778;28;20791;-73
2022/06/11 00:36:52;;;;;;;12.00;8.20;;;20.40;99.90;;;;;;4974318;28;20462;-74
2022/06/11 00:39:23;;;;;;;9.37;8.57;;;20.30;99.90;;;;;;4982137;28;20506;-75
2022/06/11 00:41:53;;;;;;;10.30;8.33;;;20.20;99.90;;;;;;4973115;28;20487;-76
2022/06/11 00:44:21;;;;;;;11.77;7.73;;;20.20;99.90;;;;;;4976547;28;20493;-74
2022/06/11 00:46:55;;;;;;;8.97;7.20;;;20.30;99.90;;;;;;4974265;28;20486;-74
2022/06/11 00:49:32;;;;;;;7.30;6.60;;;20.30;99.90;;;;;;4978343;28;20443;-74
2022/06/11 00:52:10;;;;;;;8.40;7.60;;;20.30;99.90;;;;;;4983749;28;20489;-75
2022/06/11 00:54:40;;;;;;;8.33;7.10;;;20.30;99.90;;;;;;4967187;28;20468;-73
2022/06/11 00:57:09;;;;;;;8.33;6.93;;;20.30;99.90;;;;;;4984934;28;20553;-75
2022/06/11 00:59:41;;;;;;;7.90;6.53;;;20.30;99.90;;;;;;4986809;28;20459;-74
2022/06/11 01:02:09;;;;;;;8.17;7.23;;;20.30;99.90;;;;;;4975337;28;20466;-74
2022/06/11 01:04:48;;;;;;;8.67;7.97;;;20.30;99.90;;;;;;4975027;28;20455;-73
2022/06/11 01:07:36;;;;;;;7.70;6.73;;;20.30;99.90;;;;;;4986782;28;20988;-73
2022/06/11 01:10:48;;;;;;;10.20;6.90;;;20.30;99.90;;;;;;4975686;28;20910;-73
2022/06/11 01:13:30;;;;;;;11.00;8.40;;;20.40;99.90;;;;;;4975964;28;20481;-73
2022/06/11 01:16:00;;;;;;;7.80;6.97;;;20.30;99.90;;;;;;4984768;28;20445;-74
2022/06/11 01:18:39;;;;;;;9.13;7.50;;;20.20;99.90;;;;;;4964952;28;20457;-74
2022/06/11 01:21:20;;;;;;;10.00;7.80;;;20.20;99.90;;;;;;4973061;28;20442;-73
2022/06/11 01:24:23;;;;;;;6.63;5.93;;;20.00;99.90;;;;;;4972677;28;20547;-75
2022/06/11 01:27:29;;;;;;;9.77;7.20;;;20.10;99.90;;;;;;4975322;28;20536;-74
2022/06/11 01:29:59;;;;;;;8.63;7.67;;;20.00;99.90;;;;;;4981693;28;20448;-73
2022/06/11 01:32:36;;;;;;;11.20;9.30;;;19.90;99.90;;;;;;4978717;28;20523;-74
2022/06/11 01:35:22;;;;;;;8.00;7.20;;;19.90;99.90;;;;;;4982351;28;20484;-74
2022/06/11 01:37:53;;;;;;;11.03;7.30;;;19.80;99.90;;;;;;4973598;28;20962;-73
2022/06/11 01:40:32;;;;;;;10.47;7.60;;;19.80;99.90;;;;;;4973450;28;20559;-74
2022/06/11 01:43:11;;;;;;;10.00;8.30;;;19.70;99.90;;;;;;4985069;28;20498;-74
2022/06/11 01:45:40;;;;;;;9.40;8.03;;;19.60;99.90;;;;;;4987478;28;20440;-74
2022/06/11 01:48:13;;;;;;;12.20;9.03;;;19.50;99.90;;;;;;4986555;28;20452;-73
2022/06/11 01:50:45;;;;;;;8.83;8.03;;;19.50;99.90;;;;;;4975385;28;20532;-74
2022/06/11 01:53:39;;;;;;;10.10;8.10;;;19.40;99.90;;;;;;4974791;28;20458;-74
2022/06/11 01:56:30;;;;;;;9.73;7.20;;;19.40;99.90;;;;;;4972858;28;20959;-75
2022/06/11 01:59:28;;;;;;;8.47;7.77;;;19.30;99.90;;;;;;4982435;28;20532;-74
2022/06/11 02:02:11;;;;;;;8.27;7.40;;;19.20;99.90;;;;;;4968611;28;20486;-74
2022/06/11 02:04:45;;;;;;;9.17;8.27;;;19.10;99.90;;;;;;4977552;28;20436;-74
2022/06/11 02:07:29;;;;;;;13.20;8.20;;;19.10;99.90;;;;;;4974470;28;20912;-74
2022/06/11 02:10:03;;;;;;;7.87;7.07;;;19.10;99.90;;;;;;4970366;28;20450;-73
2022/06/11 02:12:35;;;;;;;8.30;7.60;;;19.00;99.90;;;;;;4964007;28;20519;-75
2022/06/11 02:15:07;;;;;;;10.97;8.90;;;19.00;99.90;;;;;;4972214;28;20452;-74
2022/06/11 02:17:39;;;;;;;9.90;8.40;;;19.00;99.90;;;;;;4973689;28;20540;-74
2022/06/11 02:20:11;;;;;;;11.60;8.23;;;18.90;99.90;;;;;;4971737;28;20477;-74
2022/06/11 02:22:45;;;;;;;9.80;8.63;;;18.90;99.90;;;;;;4973311;28;20576;-74
2022/06/11 02:25:17;;;;;;;8.23;7.10;;;18.80;99.90;;;;;;4978503;28;20514;-74
2022/06/11 02:27:46;;;;;;;10.17;9.27;;;18.80;99.90;;;;;;4976533;28;20467;-74
2022/06/11 02:30:17;;;;;;;9.00;8.13;;;18.90;99.90;;;;;;4983589;28;20516;-74
2022/06/11 02:32:45;;;;;;;10.50;9.53;;;18.80;99.90;;;;;;4981403;28;20951;-74
2022/06/11 02:35:26;;;;;;;10.50;9.50;;;18.80;99.90;;;;;;4987016;28;20460;-75
2022/06/11 02:37:53;;;;;;;10.40;9.30;;;18.80;99.90;;;;;;4978949;28;20461;-73
2022/06/11 02:40:26;;;;;;;9.80;8.60;;;18.80;99.90;;;;;;4996653;28;20881;-74
2022/06/11 02:42:54;;;;;;;11.70;9.37;;;18.80;99.90;;;;;;4991023;28;20498;-74
2022/06/11 02:45:21;;;;;;;8.73;7.83;;;18.90;99.90;;;;;;4990656;28;20449;-73
2022/06/11 02:47:52;;;;;;;13.30;8.57;;;18.90;99.90;;;;;;4984594;28;20463;-73
2022/06/11 02:50:22;;;;;;;12.93;10.03;;;19.00;99.90;;;;;;4987389;28;20867;-73
2022/06/11 02:52:49;;;;;;;8.40;7.60;;;18.90;99.90;;;;;;4976494;28;20472;-74
2022/06/11 02:55:17;;;;;;;9.40;8.50;;;18.80;99.90;;;;;;4983687;28;20445;-74
2022/06/11 02:57:45;;;;;;;11.43;9.33;;;18.70;99.90;;;;;;4993451;28;20451;-74
2022/06/11 03:00:17;;;;;;;10.70;8.80;;;18.60;99.90;;;;;;4986097;28;20804;-73
2022/06/11 03:02:46;;;;;;;11.57;10.47;;;18.60;99.90;;;;;;4986410;28;20567;-73
2022/06/11 03:05:16;;;;;;;11.93;10.47;;;18.50;99.90;;;;;;4984046;28;20450;-74
2022/06/11 03:07:44;;;;;;;11.40;9.40;;;18.50;99.90;;;;;;4992748;28;20520;-73
2022/06/11 03:10:13;;;;;;;11.20;10.10;;;18.40;99.90;;;;;;4987929;28;20460;-75
2022/06/11 03:12:41;;;;;;;13.67;9.37;;;18.40;99.90;;;;;;4984650;28;20556;-74
2022/06/11 03:15:09;;;;;;;9.70;7.90;;;18.40;99.90;;;;;;4974783;28;20481;-74
2022/06/11 03:17:35;;;;;;;10.00;8.77;;;18.50;99.90;;;;;;4965961;28;20784;-75
2022/06/11 03:20:02;;;;;;;10.20;9.20;;;18.40;99.90;;;;;;4975386;28;20446;-75
2022/06/11 03:22:31;;;;;;;9.93;8.97;;;18.40;99.90;;;;;;4978559;28;21015;-75
2022/06/11 03:24:59;;;;;;;11.00;9.93;;;18.40;99.90;;;;;;4975689;28;20496;-74
2022/06/11 03:27:27;;;;;;;10.67;9.17;;;18.40;99.90;;;;;;4977707;28;20540;-74
2022/06/11 03:29:54;;;;;;;15.60;11.63;;;18.40;99.90;;;;;;4975155;28;20469;-75
2022/06/11 03:32:21;;;;;;;17.00;11.03;;;18.50;99.90;;;;;;4975688;28;20555;-74
2022/06/11 03:34:48;;;;;;;15.00;10.90;;;18.40;99.90;;;;;;4975727;28;20449;-74
2022/06/11 03:37:15;;;;;;;11.83;10.80;;;18.40;99.90;;;;;;4973539;28;20457;-72
2022/06/11 03:39:44;;;;;;;11.93;9.37;;;18.40;99.90;;;;;;4974448;28;20543;-74
2022/06/11 03:42:11;;;;;;;14.43;10.73;;;18.40;99.90;;;;;;4974587;28;20576;-74
2022/06/11 03:44:38;;;;;;;12.87;10.70;;;18.50;99.90;;;;;;4978514;28;20877;-74
2022/06/11 03:47:05;;;;;;;13.30;10.20;;;18.50;99.90;;;;;;4985347;28;20443;-73
2022/06/11 03:49:32;;;;;;;12.27;10.57;;;18.50;99.90;;;;;;4976425;28;21010;-73
2022/06/11 03:52:00;;;;;;;16.20;13.50;;;18.60;99.90;;;;;;4967821;28;20548;-75
2022/06/11 03:54:27;;;;;;;14.43;11.03;;;18.70;99.90;;;;;;4976565;28;20446;-73
2022/06/11 03:56:56;;;;;;;10.07;8.20;;;18.90;99.90;;;;;;4983136;28;20543;-72
2022/06/11 03:59:26;;;;;;;12.60;10.37;;;19.00;99.90;;;;;;4984474;28;20520;-72
2022/06/11 04:02:21;;;;;;;14.73;9.60;;;19.10;99.90;;;;;;4977751;28;20849;-73
2022/06/11 04:04:48;;;;;;;13.00;10.17;;;19.20;99.90;;;;;;4959428;28;20485;-74
2022/06/11 04:07:15;;;;;;;16.40;9.90;;;19.50;99.90;;;;;;4974994;28;20469;-74
2022/06/11 04:09:45;;;;;;;16.00;10.53;;;19.70;99.90;;;;;;4975089;28;20524;-73
2022/06/11 04:12:15;;;;;;;13.30;10.23;;;19.70;99.90;;;;;;4970942;28;20505;-74
2022/06/11 04:14:44;;;;;;;10.63;9.63;;;19.70;99.90;;;;;;4974605;28;20820;-74
2022/06/11 04:17:14;;;;;;;15.13;10.30;;;19.60;99.90;;;;;;4972519;28;20450;-74
2022/06/11 04:19:45;;;;;;;13.83;10.10;;;19.50;99.90;;;;;;4973605;28;20477;-73
2022/06/11 04:22:13;;;;;;;12.57;9.03;;;19.30;99.90;;;;;;4972469;28;20503;-73
2022/06/11 04:24:41;;;;;;;11.47;8.77;;;19.90;99.90;;;;;;4975061;28;20453;-74
2022/06/11 04:27:10;;;;;;;12.83;9.60;;;20.60;99.90;;;;;;4978582;28;20456;-74
2022/06/11 04:29:44;;;;;;;8.80;7.90;;;21.30;99.90;;;;;;4978703;28;20534;-74
2022/06/11 04:32:15;;;;;;;9.10;7.60;;;22.10;99.90;;;;;;4974093;28;20491;-73
2022/06/11 04:34:42;;;;;;;10.23;8.67;;;22.70;99.90;;;;;;4970081;28;20456;-74
2022/06/11 04:37:13;;;;;;;11.30;8.87;;;22.90;99.90;;;;;;4976043;28;20446;-74
2022/06/11 04:39:44;;;;;;;9.37;8.40;;;23.30;99.90;;;;;;4976231;28;20453;-74
2022/06/11 04:42:12;;;;;;;7.37;6.60;;;23.90;99.90;;;;;;4971971;28;20494;-74
2022/06/11 04:44:41;;;;;;;9.70;8.70;;;24.50;99.90;;;;;;4974976;28;20810;-74
2022/06/11 04:47:11;;;;;;;10.67;7.20;;;25.20;99.90;;;;;;4975307;28;20484;-73
2022/06/11 04:49:39;;;;;;;10.40;7.20;;;25.90;99.90;;;;;;4975435;28;20447;-74
2022/06/11 04:52:07;;;;;;;9.60;8.70;;;25.60;99.90;;;;;;4967043;28;20577;-73
2022/06/11 04:54:34;;;;;;;10.03;9.13;;;25.10;99.90;;;;;;4978029;28;21010;-75
2022/06/11 04:57:01;;;;;;;13.23;10.07;;;23.90;99.90;;;;;;4978013;28;20446;-74
2022/06/11 04:59:28;;;;;;;13.77;11.30;;;22.90;99.90;;;;;;4974987;28;20536;-74
2022/06/11 05:01:57;;;;;;;11.60;9.40;;;22.40;99.90;;;;;;4972341;28;20535;-74
2022/06/11 05:04:24;;;;;;;15.13;9.13;;;22.40;99.90;;;;;;4983818;28;20447;-75
2022/06/11 05:06:51;;;;;;;10.77;9.57;;;23.10;99.90;;;;;;4976562;28;20449;-74
2022/06/11 05:09:21;;;;;;;12.27;10.97;;;23.80;99.90;;;;;;4981555;28;20525;-74
2022/06/11 05:11:49;;;;;;;10.53;9.60;;;23.40;99.90;;;;;;4970020;28;20470;-74
2022/06/11 05:14:16;;;;;;;13.47;9.90;;;23.20;99.90;;;;;;4978532;28;20817;-74
2022/06/11 05:16:46;;;;;;;13.73;10.10;;;22.70;99.90;;;;;;4979555;28;20754;-74
2022/06/11 05:19:16;;;;;;;13.37;10.53;;;22.30;99.90;;;;;;4978915;28;20457;-74
2022/06/11 05:21:43;;;;;;;11.70;9.90;;;22.10;99.90;;;;;;4972584;28;20834;-74
2022/06/11 05:24:10;;;;;;;13.80;11.37;;;21.70;99.90;;;;;;4966057;28;20459;-75
2022/06/11 05:26:43;;;;;;;13.03;11.63;;;21.40;99.90;;;;;;4970616;28;20465;-73
2022/06/11 05:29:17;;;;;;;11.80;10.53;;;21.00;99.90;;;;;;4973281;28;20457;-74
2022/06/11 05:31:44;;;;;;;16.57;12.43;;;20.70;99.90;;;;;;4971879;28;20456;-75
2022/06/11 05:34:12;;;;;;;15.00;11.80;;;20.50;99.90;;;;;;4971580;28;20460;-73
2022/06/11 05:36:40;;;;;;;12.17;10.77;;;20.40;99.90;;;;;;4979384;28;20529;-75
2022/06/11 05:39:07;;;;;;;13.60;12.20;;;20.20;99.90;;;;;;4972530;28;20451;-74
2022/06/11 05:41:35;;;;;;;13.43;10.63;;;20.10;99.90;;;;;;4970037;28;20843;-74
2022/06/11 05:44:02;;;;;;;16.03;11.30;;;20.40;99.90;;;;;;4976919;28;20471;-73
2022/06/11 05:46:29;;;;;;;14.53;12.20;;;20.60;99.90;;;;;;4983184;28;20459;-75
2022/06/11 05:49:03;;;;;;;14.10;9.13;;;20.70;99.90;;;;;;4983859;28;20448;-74
2022/06/11 05:51:34;;;;;;;13.97;9.23;;;20.70;99.90;;;;;;4969366;28;20459;-72
2022/06/11 05:54:07;;;;;;;11.83;9.23;;;21.40;99.90;;;;;;4973176;28;20517;-74
2022/06/11 05:56:34;;;;;;;14.00;8.03;;;22.70;99.90;;;;;;4976119;28;20448;-73
2022/06/11 05:59:05;;;;;;;9.37;8.33;;;24.00;99.90;;;;;;4981087;28;20484;-74
2022/06/11 06:01:36;;;;;;;11.47;7.77;;;24.90;99.90;;;;;;4977225;28;20446;-74
2022/06/11 06:04:03;;;;;;;11.10;7.73;;;25.70;99.90;;;;;;4974191;28;20947;-76
2022/06/11 06:06:30;;;;;;;9.30;8.33;;;25.40;99.90;;;;;;4977405;28;20579;-74
2022/06/11 06:08:57;;;;;;;10.03;7.60;;;25.10;99.90;;;;;;4976625;28;20847;-75
2022/06/11 06:11:26;;;;;;;10.00;7.50;;;24.60;99.90;;;;;;4973224;28;20440;-73
2022/06/11 06:13:53;;;;;;;8.63;6.50;;;25.20;99.90;;;;;;4975751;28;20466;-73
2022/06/11 06:16:30;;;;;;;8.33;7.53;;;25.30;99.90;;;;;;4975731;28;20472;-74
2022/06/11 06:18:59;;;;;;;9.60;7.57;;;25.00;99.90;;;;;;4972878;28;20452;-73
2022/06/11 06:21:30;;;;;;;9.80;7.80;;;25.30;99.90;;;;;;4969973;28;20472;-75
2022/06/11 06:23:58;;;;;;;10.53;7.83;;;25.90;98.80;;;;;;4979227;28;20508;-75
2022/06/11 06:26:28;;;;;;;8.63;7.60;;;26.00;97.90;;;;;;4971287;28;20453;-74
2022/06/11 06:28:55;;;;;;;9.57;8.10;;;25.30;98.00;;;;;;4981444;28;20483;-76
2022/06/11 06:31:24;;;;;;;9.20;8.27;;;25.00;98.90;;;;;;4989448;28;20509;-75
2022/06/11 06:33:51;;;;;;;8.50;7.30;;;25.20;99.30;;;;;;4981613;28;20465;-76
2022/06/11 06:36:31;;;;;;;6.43;5.83;;;26.10;96.80;;;;;;4979974;28;20446;-77
2022/06/11 06:38:58;;;;;;;8.40;6.43;;;27.40;93.80;;;;;;4977181;28;20518;-76
2022/06/11 06:41:27;;;;;;;8.90;6.77;;;27.80;91.70;;;;;;4972601;28;20486;-73
2022/06/11 06:43:54;;;;;;;10.90;5.37;;;27.20;90.90;;;;;;4980754;28;20517;-74
2022/06/11 06:46:24;;;;;;;10.57;5.47;;;25.80;92.50;;;;;;4977816;28;20536;-74
2022/06/11 06:48:54;;;;;;;6.33;5.30;;;26.20;93.10;;;;;;4974716;28;20455;-76
2022/06/11 06:51:25;;;;;;;11.90;4.57;;;26.00;92.90;;;;;;4966913;28;20471;-75
2022/06/11 06:53:52;;;;;;;8.97;5.80;;;25.50;92.70;;;;;;4989427;28;20455;-74
2022/06/11 06:56:19;;;;;;;5.67;4.10;;;24.80;93.50;;;;;;4993150;28;20924;-76
2022/06/11 06:58:47;;;;;;;11.37;4.87;;;24.70;94.30;;;;;;4987873;28;20469;-74
2022/06/11 07:01:15;;;;;;;8.20;3.37;;;25.40;93.80;;;;;;4976124;28;20445;-75
2022/06/11 07:03:42;;;;;;;3.70;3.00;;;26.40;91.80;;;;;;4977336;28;20580;-75
2022/06/11 07:06:09;;;;;;;5.17;2.77;;;26.70;90.00;;;;;;4987664;28;20528;-75
2022/06/11 07:08:36;;;;;;;3.73;2.80;;;26.80;90.50;;;;;;4985747;28;20528;-75
2022/06/11 07:11:04;;;;;;;4.90;2.70;;;27.20;89.80;;;;;;4998225;28;20493;-75
2022/06/11 07:13:32;;;;;;;8.27;4.67;;;27.20;88.30;;;;;;4983928;28;20505;-74
2022/06/11 07:16:05;;;;;;;4.40;2.77;;;28.30;87.00;;;;;;4980324;28;20456;-76
2022/06/11 07:18:37;;;;;;;5.70;2.87;;;28.20;82.60;;;;;;4973085;28;20940;-76
2022/06/11 07:21:07;;;;;;;5.83;2.57;;;28.80;82.80;;;;;;4975050;28;20452;-74
2022/06/11 07:23:38;;;;;;;6.13;3.40;;;29.10;81.60;;;;;;4966488;28;21044;-77
2022/06/11 07:26:23;;;;;;;5.53;3.00;;;29.60;79.50;;;;;;4979949;28;20548;-75
2022/06/11 07:28:56;;;;;;;6.30;3.03;;;29.80;79.20;;;;;;4980032;28;20464;-75
2022/06/11 07:31:26;;;;;;;4.73;2.53;;;29.90;78.30;;;;;;4982011;28;20543;-75
2022/06/11 07:33:52;;;;;;;5.33;2.90;;;30.30;77.50;;;;;;4974491;28;20452;-77
2022/06/11 07:36:19;;;;;;;7.93;2.83;;;30.70;75.30;;;;;;4975455;28;20913;-75
2022/06/11 07:38:47;;;;;;;7.40;2.33;;;30.70;73.40;;;;;;4975768;28;20541;-75
2022/06/11 07:41:15;;;;;;;6.60;2.67;;;30.40;72.50;;;;;;4974267;28;20881;-75
2022/06/11 07:43:42;;;;;;;6.13;2.80;;;29.80;74.30;;;;;;4975748;28;21011;-75
2022/06/11 07:46:09;;;;;;;4.00;2.10;;;29.60;74.40;;;;;;4974550;28;20529;-75
2022/06/11 07:48:37;;;;;;;3.40;2.70;;;30.00;74.30;;;;;;4985567;28;20442;-74
2022/06/11 07:51:06;;;;;;;3.90;2.27;;;30.20;72.50;;;;;;4978868;28;20474;-75
2022/06/11 07:53:34;;;;;;;4.00;2.10;;;30.80;71.70;;;;;;4975329;28;20844;-74
2022/06/11 07:56:01;;;;;;;3.87;1.93;;;31.40;70.80;;;;;;4975100;28;20950;-74
2022/06/11 07:58:31;;;;;;;2.97;2.00;;;31.50;69.00;;;;;;4979240;28;20470;-74
2022/06/11 08:00:59;;;;;;;5.70;2.73;;;31.00;69.30;;;;;;4974081;28;20460;-77
2022/06/11 08:03:27;;;;;;;3.93;2.50;;;30.20;69.60;;;;;;4972779;28;20481;-75
2022/06/11 08:05:56;;;;;;;5.10;2.20;;;30.30;69.80;;;;;;4974210;28;20454;-73
2022/06/11 08:08:24;;;;;;;9.10;2.63;;;29.90;69.90;;;;;;4974724;28;20442;-74
2022/06/11 08:10:50;;;;;;;5.53;2.80;;;30.20;67.60;;;;;;4974212;28;20537;-73
2022/06/11 08:13:18;;;;;;;5.53;2.90;;;30.10;68.40;;;;;;4976527;28;20494;-74
2022/06/11 08:15:48;;;;;;;4.70;2.43;;;30.20;69.40;;;;;;4977805;28;20536;-70
2022/06/11 08:18:15;;;;;;;5.13;2.20;;;30.50;67.20;;;;;;4965725;28;20541;-73
2022/06/11 08:20:42;;;;;;;3.70;2.17;;;30.70;67.30;;;;;;4973994;28;20458;-74
2022/06/11 08:23:11;;;;;;;4.33;2.43;;;30.80;66.80;;;;;;4974762;28;20991;-72
2022/06/11 08:25:38;;;;;;;5.03;2.47;;;30.80;66.10;;;;;;4970284;28;20452;-71
2022/06/11 08:28:06;;;;;;;3.30;1.90;;;31.20;65.20;;;;;;4972336;28;20940;-73
2022/06/11 08:30:35;;;;;;;8.20;2.43;;;31.90;64.30;;;;;;4973567;28;20460;-73
2022/06/11 08:33:02;;;;;;;4.37;2.10;;;31.60;63.20;;;;;;4971534;28;20470;-72
2022/06/11 08:35:31;;;;;;;4.90;2.60;;;31.60;63.30;;;;;;4976372;28;20469;-72
2022/06/11 08:37:59;;;;;;;6.23;2.70;;;31.70;62.80;;;;;;4983126;28;20461;-73
2022/06/11 08:40:31;;;;;;;3.83;2.40;;;32.20;62.40;;;;;;4969753;28;20465;-73
2022/06/11 08:43:02;;;;;;;7.63;2.27;;;31.90;61.90;;;;;;4973195;28;20525;-71
2022/06/11 08:45:38;;;;;;;5.37;2.23;;;31.70;60.90;;;;;;4976713;28;20445;-73
2022/06/11 08:48:14;;;;;;;6.30;2.93;;;31.90;62.50;;;;;;4981198;28;20477;-71
2022/06/11 08:50:53;;;;;;;5.20;2.20;;;32.20;61.90;;;;;;4972817;28;20568;-74
2022/06/11 08:53:22;;;;;;;7.83;2.70;;;30.90;62.80;;;;;;4977822;28;20465;-74
2022/06/11 08:55:51;;;;;;;5.97;2.40;;;30.80;63.60;;;;;;4979221;28;20449;-76
2022/06/11 08:58:31;;;;;;;10.70;3.47;;;30.60;63.90;;;;;;4974452;28;20819;-74
2022/06/11 09:01:07;;;;;;;8.93;3.10;;;30.60;64.40;;;;;;4984796;28;20455;-73
2022/06/11 09:03:54;;;;;;;5.80;3.30;;;31.00;65.10;;;;;;4975108;28;20535;-71
2022/06/11 09:06:34;;;;;;;7.47;3.50;;;31.00;63.90;;;;;;4984143;28;20452;-72
2022/06/11 09:09:07;;;;;;;7.47;3.43;;;31.50;63.80;;;;;;4974877;28;20444;-73
2022/06/11 09:12:03;;;;;;;7.23;2.97;;;32.20;63.50;;;;;;4980199;28;20553;-79
2022/06/11 09:14:53;;;;;;;8.47;4.07;;;31.90;61.40;;;;;;4974403;28;20444;-74
2022/06/11 09:17:41;;;;;;;7.30;3.57;;;32.00;61.90;;;;;;4981162;28;20528;-74
2022/06/11 09:20:18;;;;;;;10.53;3.23;;;31.90;61.90;;;;;;4971296;28;20873;-74
2022/06/11 09:23:04;;;;;;;10.37;3.03;;;32.10;61.90;;;;;;4977941;28;20994;-74
2022/06/11 09:25:44;;;;;;;9.73;3.27;;;32.50;61.30;;;;;;4968048;28;20494;-74
2022/06/11 09:28:21;;;;;;;8.83;3.80;;;32.30;60.50;;;;;;4971970;28;20556;-74
2022/06/11 09:30:55;;;;;;;7.10;3.07;;;31.60;61.50;;;;;;4969108;28;20453;-71
2022/06/11 09:33:29;;;;;;;8.60;2.70;;;31.30;62.00;;;;;;4976512;28;20453;-73
2022/06/11 09:36:02;;;;;;;8.30;3.03;;;30.60;62.80;;;;;;4976373;28;20532;-74
2022/06/11 09:38:40;;;;;;;7.77;3.33;;;30.30;63.90;;;;;;4971624;28;20442;-73
2022/06/11 09:41:21;;;;;;;6.90;2.57;;;29.70;64.00;;;;;;4976213;28;20956;-74
2022/06/11 09:43:56;;;;;;;10.03;3.80;;;29.80;65.50;;;;;;4969907;28;20493;-73
2022/06/11 09:46:36;;;;;;;12.73;3.37;;;29.90;65.30;;;;;;4973710;28;20449;-73
2022/06/11 09:49:23;;;;;;;7.90;3.20;;;29.60;65.40;;;;;;4965343;28;20486;-74
2022/06/11 09:51:55;;;;;;;7.27;2.90;;;29.90;65.00;;;;;;4967640;28;20508;-74
2022/06/11 09:54:52;;;;;;;9.10;3.60;;;30.20;65.30;;;;;;4972500;28;20936;-74
2022/06/11 09:57:29;;;;;;;8.20;3.07;;;30.20;64.60;;;;;;4974232;28;20536;-73
2022/06/11 10:00:03;;;;;;;16.50;3.67;;;30.20;64.70;;;;;;4965968;28;20553;-70
2022/06/11 10:02:36;;;;;;;5.80;2.77;;;30.10;63.90;;;;;;4958237;28;20539;-73
2022/06/11 10:05:14;;;;;;;8.00;3.13;;;29.80;64.70;;;;;;4973484;28;20500;-73
2022/06/11 10:07:45;;;;;;;8.40;3.17;;;29.60;64.50;;;;;;4972476;28;20466;-73
2022/06/11 10:10:17;;;;;;;8.10;2.70;;;29.50;65.40;;;;;;4969540;28;20445;-72
2022/06/11 10:12:49;;;;;;;5.50;2.57;;;29.40;65.80;;;;;;4966714;28;20553;-72
2022/06/11 10:15:21;;;;;;;11.20;3.00;;;28.80;67.50;;;;;;4976860;28;20735;-72
2022/06/11 10:17:56;;;;;;;8.50;3.23;;;28.50;67.40;;;;;;4973029;28;20549;-72
2022/06/11 10:20:27;;;;;;;9.87;3.87;;;28.60;66.60;;;;;;4979312;28;20449;-72
2022/06/11 10:23:03;;;;;;;9.33;3.70;;;28.80;67.20;;;;;;4979455;28;20567;-72
2022/06/11 10:25:33;;;;;;;8.00;2.70;;;29.20;68.10;;;;;;4971548;28;21020;-72
2022/06/11 10:28:03;;;;;;;6.10;2.50;;;29.20;66.50;;;;;;4968633;28;20863;-72
2022/06/11 10:30:46;;;;;;;5.40;2.80;;;29.00;67.60;;;;;;4972809;28;20450;-72
2022/06/11 10:33:19;;;;;;;7.90;3.00;;;29.30;66.90;;;;;;4966809;28;20572;-72
2022/06/11 10:35:50;;;;;;;12.97;4.10;;;29.90;65.30;;;;;;4976051;28;20446;-73
2022/06/11 10:38:30;;;;;;;7.97;3.27;;;30.10;64.60;;;;;;4972733;28;20452;-73
2022/06/11 10:41:00;;;;;;;7.90;3.37;;;30.10;65.30;;;;;;4966171;28;20537;-72
2022/06/11 10:43:35;;;;;;;8.83;3.63;;;30.00;65.40;;;;;;4971281;28;20549;-73
2022/06/11 10:46:04;;;;;;;9.03;3.53;;;29.60;66.80;;;;;;4972098;28;20453;-74
2022/06/11 10:48:36;;;;;;;12.13;3.30;;;29.50;66.20;;;;;;4975844;28;20911;-72
2022/06/11 10:51:15;;;;;;;9.70;3.90;;;29.10;66.20;;;;;;4976347;28;20483;-73
2022/06/11 10:53:55;;;;;;;7.77;3.00;;;29.10;67.40;;;;;;4965335;28;20469;-74
2022/06/11 10:56:30;;;;;;;8.87;3.60;;;28.80;66.40;;;;;;4980872;28;21159;-72
2022/06/11 10:59:02;;;;;;;9.77;2.73;;;28.70;66.70;;;;;;4966520;28;20514;-73
2022/06/11 11:01:35;;;;;;;8.17;3.23;;;28.50;66.70;;;;;;4971885;28;20456;-73
2022/06/11 11:04:23;;;;;;;16.57;4.43;;;28.60;67.00;;;;;;4972137;28;20485;-74
2022/06/11 11:07:08;;;;;;;9.03;3.20;;;28.30;68.00;;;;;;4975047;28;20473;-73
2022/06/11 11:09:35;;;;;;;13.27;2.90;;;28.10;69.80;;;;;;4973573;28;20542;-72
2022/06/11 11:12:07;;;;;;;13.80;7.80;;;27.80;68.00;;;;;;4973641;28;20683;-73
2022/06/11 11:14:39;;;;;;;7.40;2.47;;;27.30;69.90;;;;;;4987147;28;20528;-74
2022/06/11 11:17:15;;;;;;;8.13;3.30;;;27.30;69.80;;;;;;4985502;28;20457;-73
2022/06/11 11:19:45;;;;;;;7.10;3.00;;;27.30;70.40;;;;;;4972997;28;20964;-74
2022/06/11 11:22:18;;;;;;;4.40;2.53;;;27.30;70.90;;;;;;4983799;28;21013;-72
2022/06/11 11:24:50;;;;;;;6.70;2.57;;;27.40;70.60;;;;;;4982179;28;20571;-72
2022/06/11 11:27:21;;;;;;;5.97;2.83;;;27.50;71.40;;;;;;4978067;28;20533;-72
2022/06/11 11:29:53;;;;;;;11.30;2.73;;;27.80;70.90;;;;;;4974514;28;20473;-72
2022/06/11 11:32:31;;;;;;;5.70;2.50;;;27.90;70.10;;;;;;4989164;28;20552;-73
2022/06/11 11:34:58;;;;;;;8.80;2.50;;;27.90;70.60;;;;;;4976859;28;20888;-73
2022/06/11 11:37:27;;;;;;;7.67;2.63;;;27.80;70.60;;;;;;4985550;28;20536;-73
2022/06/11 11:39:56;;;;;;;6.60;2.70;;;27.50;71.30;;;;;;4982206;28;20526;-73
2022/06/11 11:42:25;;;;;;;5.87;2.67;;;27.30;72.70;;;;;;4987252;28;20487;-72
2022/06/11 11:44:57;;;;;;;5.97;2.60;;;27.30;71.10;;;;;;4985319;28;20481;-73
2022/06/11 11:47:31;;;;;;;6.13;2.63;;;27.20;71.00;;;;;;4980307;28;20540;-72
2022/06/11 11:50:07;;;;;;;7.07;2.63;;;27.20;72.40;;;;;;4977889;28;20450;-72
2022/06/11 11:52:41;;;;;;;7.53;3.20;;;27.50;72.30;;;;;;4978540;28;20522;-73
2022/06/11 11:55:18;;;;;;;5.50;2.77;;;27.40;72.00;;;;;;4979741;28;20445;-73
2022/06/11 11:57:56;;;;;;;11.63;3.00;;;27.00;72.20;;;;;;4967503;28;20831;-72
2022/06/11 12:00:29;;;;;;;11.03;3.93;;;26.90;73.20;;;;;;4975970;28;20915;-73
2022/06/11 12:03:00;;;;;;;10.60;3.50;;;27.00;72.50;;;;;;4966474;28;20479;-73
2022/06/11 12:05:39;;;;;;;5.20;2.93;;;27.20;72.50;;;;;;4972950;28;20921;-72
2022/06/11 12:08:14;;;;;;;8.37;2.73;;;27.30;71.80;;;;;;4971996;28;20497;-73
2022/06/11 12:10:48;;;;;;;9.40;3.30;;;27.10;72.50;;;;;;4975256;28;20478;-73
2022/06/11 12:13:24;;;;;;;11.13;3.30;;;26.90;72.60;;;;;;4978585;28;20465;-73
2022/06/11 12:15:55;;;;;;;7.10;2.57;;;26.90;72.00;;;;;;4965598;28;20450;-72
2022/06/11 12:18:29;;;;;;;8.97;4.03;;;27.00;72.40;;;;;;4975287;28;20827;-74
2022/06/11 12:20:59;;;;;;;12.10;5.23;;;26.90;72.50;;;;;;4972381;28;20456;-74
2022/06/11 12:23:32;;;;;;;10.87;5.00;;;26.80;73.00;;;;;;4974446;28;20505;-73
2022/06/11 12:26:04;;;;;;;10.07;2.57;;;26.90;73.40;;;;;;4974760;28;20556;-75
2022/06/11 12:28:36;;;;;;;6.00;2.83;;;27.00;73.40;;;;;;4971784;28;20540;-72
2022/06/11 12:31:04;;;;;;;14.63;6.00;;;26.80;73.20;;;;;;4982383;28;20477;-71
2022/06/11 12:33:34;;;;;;;10.43;3.93;;;26.70;74.60;;;;;;4977643;28;20878;-73
2022/06/11 12:36:10;;;;;;;7.47;3.77;;;26.50;74.70;;;;;;4964299;28;20880;-73
2022/06/11 12:38:50;;;;;;;6.40;2.97;;;26.40;75.00;;;;;;4967171;28;20449;-73
2022/06/11 12:41:29;;;;;;;8.20;2.90;;;26.20;75.30;;;;;;4970999;28;20513;-73
2022/06/11 12:44:15;;;;;;;10.53;3.70;;;26.10;74.70;;;;;;4971396;28;20497;-72
2022/06/11 12:46:48;;;;;;;10.80;3.77;;;26.00;74.10;;;;;;4971431;28;20473;-73
2022/06/11 12:49:23;;;;;;;13.13;3.77;;;26.00;75.40;;;;;;4970494;28;20549;-72
2022/06/11 12:52:11;;;;;;;7.67;3.70;;;26.00;74.70;;;;;;4965073;28;20587;-73
2022/06/11 12:55:08;;;;;;;6.40;3.43;;;26.20;75.40;;;;;;4977234;28;20529;-73
2022/06/11 12:57:49;;;;;;;9.50;2.70;;;26.40;74.70;;;;;;4967994;28;20450;-74
2022/06/11 13:00:34;;;;;;;11.40;3.60;;;26.50;74.60;;;;;;4972682;28;20465;-72
2022/06/11 13:03:14;;;;;;;7.30;3.90;;;26.60;74.40;;;;;;4974388;28;20858;-73
2022/06/11 13:06:02;;;;;;;5.13;2.40;;;26.70;74.00;;;;;;4971760;28;20481;-71
2022/06/11 13:08:44;;;;;;;7.00;2.93;;;26.90;74.10;;;;;;4970454;28;20441;-72